Monroe, Arkansas
Current Conditions -  °F | °C
As of 12:15 PM on Thursday 23 Oct 2014 (Local Time) from KSGT Reporting Station
Clear Clear  
Wind Chill: 57°   Ceiling: Unl
Heat Index: 57°   Visibility: 10mi
Dew Point: 46°   Wind: 0mph
Humidity: 67%   Direction: NA
Pressure: 30.22"   Gusts: NA
Location:  34.74°N, 91.1°W
Report Text: KSGT 231715Z AUTO 00000KT 10SM CLR 14/08 A3022 RMK AO1
Loading
Personal Weather Stations






























Interactive Weather Map
Tropical Storm Tracking
New forecast layout! Learn more

10-Day Weather Forecast

Advertisements
Track Severe Weather on mobile